sensor_id;sensor_type;location;lat;lon;timestamp;temperature;humidity
65573;SHT30;52214;50.940;13.996;2023-05-10T00:02:07;14.08;77.58
65573;SHT30;52214;50.940;13.996;2023-05-10T00:04:33;14.10;77.61
65573;SHT30;52214;50.940;13.996;2023-05-10T00:06:59;14.08;77.68
65573;SHT30;52214;50.940;13.996;2023-05-10T00:09:24;14.07;77.67
65573;SHT30;52214;50.940;13.996;2023-05-10T00:11:50;14.07;77.65
65573;SHT30;52214;50.940;13.996;2023-05-10T00:14:16;14.02;77.66
65573;SHT30;52214;50.940;13.996;2023-05-10T00:16:42;14.02;77.67
65573;SHT30;52214;50.940;13.996;2023-05-10T00:19:08;14.02;77.68
65573;SHT30;52214;50.940;13.996;2023-05-10T00:21:34;14.01;77.67
65573;SHT30;52214;50.940;13.996;2023-05-10T00:24:00;14.01;77.68
65573;SHT30;52214;50.940;13.996;2023-05-10T00:26:26;14.01;77.73
65573;SHT30;52214;50.940;13.996;2023-05-10T00:31:38;13.97;77.68
65573;SHT30;52214;50.940;13.996;2023-05-10T00:34:04;13.97;77.73
65573;SHT30;52214;50.940;13.996;2023-05-10T00:36:29;13.95;77.74
65573;SHT30;52214;50.940;13.996;2023-05-10T00:38:56;13.91;77.74
65573;SHT30;52214;50.940;13.996;2023-05-10T00:41:22;13.93;77.75
65573;SHT30;52214;50.940;13.996;2023-05-10T00:43:47;13.91;77.77
65573;SHT30;52214;50.940;13.996;2023-05-10T00:46:15;13.91;77.80
65573;SHT30;52214;50.940;13.996;2023-05-10T00:48:42;13.88;77.77
65573;SHT30;52214;50.940;13.996;2023-05-10T00:51:09;13.88;77.76
65573;SHT30;52214;50.940;13.996;2023-05-10T00:53:35;13.87;77.78
65573;SHT30;52214;50.940;13.996;2023-05-10T00:56:01;13.88;77.84
65573;SHT30;52214;50.940;13.996;2023-05-10T00:58:28;13.85;77.85
65573;SHT30;52214;50.940;13.996;2023-05-10T01:00:56;13.84;77.83
65573;SHT30;52214;50.940;13.996;2023-05-10T01:03:22;13.81;77.83
65573;SHT30;52214;50.940;13.996;2023-05-10T01:05:48;13.83;77.82
65573;SHT30;52214;50.940;13.996;2023-05-10T01:08:14;13.81;77.81
65573;SHT30;52214;50.940;13.996;2023-05-10T01:10:40;13.83;77.84
65573;SHT30;52214;50.940;13.996;2023-05-10T01:13:07;13.78;77.87
65573;SHT30;52214;50.940;13.996;2023-05-10T01:15:32;13.77;77.90
65573;SHT30;52214;50.940;13.996;2023-05-10T01:17:59;13.78;77.96
65573;SHT30;52214;50.940;13.996;2023-05-10T01:20:31;13.77;78.00
65573;SHT30;52214;50.940;13.996;2023-05-10T01:23:17;13.74;78.00
65573;SHT30;52214;50.940;13.996;2023-05-10T01:26:07;13.73;78.03
65573;SHT30;52214;50.940;13.996;2023-05-10T01:28:58;13.73;78.01
65573;SHT30;52214;50.940;13.996;2023-05-10T01:31:40;13.71;78.04
65573;SHT30;52214;50.940;13.996;2023-05-10T01:34:12;13.70;78.06
65573;SHT30;52214;50.940;13.996;2023-05-10T01:36:51;13.70;78.06
65573;SHT30;52214;50.940;13.996;2023-05-10T01:39:25;13.67;78.07
65573;SHT30;52214;50.940;13.996;2023-05-10T01:42:13;13.66;78.10
65573;SHT30;52214;50.940;13.996;2023-05-10T01:44:46;13.65;78.10
65573;SHT30;52214;50.940;13.996;2023-05-10T01:47:17;13.63;78.05
65573;SHT30;52214;50.940;13.996;2023-05-10T01:49:54;13.62;78.11
65573;SHT30;52214;50.940;13.996;2023-05-10T01:52:38;13.62;78.10
65573;SHT30;52214;50.940;13.996;2023-05-10T01:55:09;13.62;78.07
65573;SHT30;52214;50.940;13.996;2023-05-10T01:57:37;13.57;78.14
65573;SHT30;52214;50.940;13.996;2023-05-10T02:00:06;13.57;78.14
65573;SHT30;52214;50.940;13.996;2023-05-10T02:02:37;13.55;78.12
65573;SHT30;52214;50.940;13.996;2023-05-10T02:05:05;13.55;78.15
65573;SHT30;52214;50.940;13.996;2023-05-10T02:07:33;13.52;78.18
65573;SHT30;52214;50.940;13.996;2023-05-10T02:10:01;13.50;78.15
65573;SHT30;52214;50.940;13.996;2023-05-10T02:12:29;13.50;78.17
65573;SHT30;52214;50.940;13.996;2023-05-10T02:14:56;13.49;78.15
65573;SHT30;52214;50.940;13.996;2023-05-10T02:17:23;13.49;78.18
65573;SHT30;52214;50.940;13.996;2023-05-10T02:19:51;13.47;78.21
65573;SHT30;52214;50.940;13.996;2023-05-10T02:22:19;13.46;78.22
65573;SHT30;52214;50.940;13.996;2023-05-10T02:24:47;13.46;78.23
65573;SHT30;52214;50.940;13.996;2023-05-10T02:27:14;13.42;78.21
65573;SHT30;52214;50.940;13.996;2023-05-10T02:29:41;13.46;78.27
65573;SHT30;52214;50.940;13.996;2023-05-10T02:32:08;13.43;78.27
65573;SHT30;52214;50.940;13.996;2023-05-10T02:34:35;13.43;78.23
65573;SHT30;52214;50.940;13.996;2023-05-10T02:37:02;13.38;78.22
65573;SHT30;52214;50.940;13.996;2023-05-10T02:39:29;13.39;78.25
65573;SHT30;52214;50.940;13.996;2023-05-10T02:41:57;13.39;78.25
65573;SHT30;52214;50.940;13.996;2023-05-10T02:44:26;13.36;78.30
65573;SHT30;52214;50.940;13.996;2023-05-10T02:46:53;13.36;78.32
65573;SHT30;52214;50.940;13.996;2023-05-10T02:49:21;13.34;78.35
65573;SHT30;52214;50.940;13.996;2023-05-10T02:51:51;13.30;78.39
65573;SHT30;52214;50.940;13.996;2023-05-10T02:54:31;13.32;78.40
65573;SHT30;52214;50.940;13.996;2023-05-10T02:57:00;13.32;78.38
65573;SHT30;52214;50.940;13.996;2023-05-10T02:59:27;13.26;78.45
65573;SHT30;52214;50.940;13.996;2023-05-10T03:01:52;13.26;78.43
65573;SHT30;52214;50.940;13.996;2023-05-10T03:04:18;13.26;78.50
65573;SHT30;52214;50.940;13.996;2023-05-10T03:06:44;13.25;78.48
65573;SHT30;52214;50.940;13.996;2023-05-10T03:09:11;13.22;78.54
65573;SHT30;52214;50.940;13.996;2023-05-10T03:12:00;13.26;78.59
65573;SHT30;52214;50.940;13.996;2023-05-10T03:20:08;13.16;78.63
65573;SHT30;52214;50.940;13.996;2023-05-10T03:22:41;13.18;78.64
65573;SHT30;52214;50.940;13.996;2023-05-10T03:25:11;13.15;78.64
65573;SHT30;52214;50.940;13.996;2023-05-10T03:27:40;13.14;78.67
65573;SHT30;52214;50.940;13.996;2023-05-10T03:30:10;13.12;78.70
65573;SHT30;52214;50.940;13.996;2023-05-10T03:32:37;13.14;78.71
65573;SHT30;52214;50.940;13.996;2023-05-10T03:35:07;13.12;78.73
65573;SHT30;52214;50.940;13.996;2023-05-10T03:37:34;13.10;78.74
65573;SHT30;52214;50.940;13.996;2023-05-10T03:40:00;13.07;78.71
65573;SHT30;52214;50.940;13.996;2023-05-10T03:42:26;13.07;78.74
65573;SHT30;52214;50.940;13.996;2023-05-10T03:44:52;13.07;78.75
65573;SHT30;52214;50.940;13.996;2023-05-10T03:47:17;13.05;78.79
65573;SHT30;52214;50.940;13.996;2023-05-10T03:49:43;13.04;78.80
65573;SHT30;52214;50.940;13.996;2023-05-10T03:52:09;13.04;78.75
65573;SHT30;52214;50.940;13.996;2023-05-10T03:54:34;13.05;78.78
65573;SHT30;52214;50.940;13.996;2023-05-10T03:57:00;13.02;78.75
65573;SHT30;52214;50.940;13.996;2023-05-10T03:59:26;13.02;78.72
65573;SHT30;52214;50.940;13.996;2023-05-10T04:01:52;13.02;78.67
65573;SHT30;52214;50.940;13.996;2023-05-10T04:04:17;13.01;78.67
65573;SHT30;52214;50.940;13.996;2023-05-10T04:06:44;13.00;78.66
65573;SHT30;52214;50.940;13.996;2023-05-10T04:09:10;13.00;78.66
65573;SHT30;52214;50.940;13.996;2023-05-10T04:11:36;12.97;78.65
65573;SHT30;52214;50.940;13.996;2023-05-10T04:14:01;12.98;78.66
65573;SHT30;52214;50.940;13.996;2023-05-10T04:16:27;12.97;78.68
65573;SHT30;52214;50.940;13.996;2023-05-10T04:18:53;12.95;78.68
65573;SHT30;52214;50.940;13.996;2023-05-10T04:21:19;12.95;78.62
65573;SHT30;52214;50.940;13.996;2023-05-10T04:23:44;12.94;78.63
65573;SHT30;52214;50.940;13.996;2023-05-10T04:26:10;12.97;78.55
65573;SHT30;52214;50.940;13.996;2023-05-10T04:28:36;12.91;78.59
65573;SHT30;52214;50.940;13.996;2023-05-10T04:31:06;12.93;78.57
65573;SHT30;52214;50.940;13.996;2023-05-10T04:33:32;12.91;78.56
65573;SHT30;52214;50.940;13.996;2023-05-10T04:35:58;12.90;78.61
65573;SHT30;52214;50.940;13.996;2023-05-10T04:38:23;12.90;78.60
65573;SHT30;52214;50.940;13.996;2023-05-10T04:40:50;12.88;78.61
65573;SHT30;52214;50.940;13.996;2023-05-10T04:43:16;12.87;78.55
65573;SHT30;52214;50.940;13.996;2023-05-10T04:45:41;12.88;78.56
65573;SHT30;52214;50.940;13.996;2023-05-10T04:48:07;12.83;78.61
65573;SHT30;52214;50.940;13.996;2023-05-10T04:50:33;12.85;78.65
65573;SHT30;52214;50.940;13.996;2023-05-10T04:52:58;12.85;78.63
65573;SHT30;52214;50.940;13.996;2023-05-10T04:55:24;12.81;78.63
65573;SHT30;52214;50.940;13.996;2023-05-10T04:57:52;12.83;78.66
65573;SHT30;52214;50.940;13.996;2023-05-10T05:00:18;12.79;78.64
65573;SHT30;52214;50.940;13.996;2023-05-10T05:02:44;12.81;78.67
65573;SHT30;52214;50.940;13.996;2023-05-10T05:05:11;12.80;78.67
65573;SHT30;52214;50.940;13.996;2023-05-10T05:07:38;12.81;78.64
65573;SHT30;52214;50.940;13.996;2023-05-10T05:10:06;12.76;78.70
65573;SHT30;52214;50.940;13.996;2023-05-10T05:12:32;12.77;78.73
65573;SHT30;52214;50.940;13.996;2023-05-10T05:14:58;12.79;78.73
65573;SHT30;52214;50.940;13.996;2023-05-10T05:17:24;12.77;78.72
65573;SHT30;52214;50.940;13.996;2023-05-10T05:19:50;12.77;78.80
65573;SHT30;52214;50.940;13.996;2023-05-10T05:22:15;12.80;78.72
65573;SHT30;52214;50.940;13.996;2023-05-10T05:24:41;12.77;78.73
65573;SHT30;52214;50.940;13.996;2023-05-10T05:27:07;12.77;78.78
65573;SHT30;52214;50.940;13.996;2023-05-10T05:29:32;12.79;78.79
65573;SHT30;52214;50.940;13.996;2023-05-10T05:31:58;12.77;78.79
65573;SHT30;52214;50.940;13.996;2023-05-10T05:34:24;12.77;78.78
65573;SHT30;52214;50.940;13.996;2023-05-10T05:36:50;12.76;78.81
65573;SHT30;52214;50.940;13.996;2023-05-10T05:39:16;12.76;78.79
65573;SHT30;52214;50.940;13.996;2023-05-10T05:41:42;12.77;78.81
65573;SHT30;52214;50.940;13.996;2023-05-10T05:44:08;12.74;78.83
65573;SHT30;52214;50.940;13.996;2023-05-10T05:46:34;12.74;78.89
65573;SHT30;52214;50.940;13.996;2023-05-10T05:49:00;12.76;78.88
65573;SHT30;52214;50.940;13.996;2023-05-10T05:51:25;12.73;78.90
65573;SHT30;52214;50.940;13.996;2023-05-10T05:53:51;12.74;78.94
65573;SHT30;52214;50.940;13.996;2023-05-10T05:56:16;12.74;78.94
65573;SHT30;52214;50.940;13.996;2023-05-10T05:58:50;12.74;79.00
65573;SHT30;52214;50.940;13.996;2023-05-10T06:01:16;12.73;79.01
65573;SHT30;52214;50.940;13.996;2023-05-10T06:03:41;12.72;79.01
65573;SHT30;52214;50.940;13.996;2023-05-10T06:06:07;12.72;79.02
65573;SHT30;52214;50.940;13.996;2023-05-10T06:08:33;12.70;79.08
65573;SHT30;52214;50.940;13.996;2023-05-10T06:11:00;12.73;79.09
65573;SHT30;52214;50.940;13.996;2023-05-10T06:13:26;12.70;79.16
65573;SHT30;52214;50.940;13.996;2023-05-10T06:15:58;12.70;79.23
65573;SHT30;52214;50.940;13.996;2023-05-10T06:18:24;12.72;79.26
65573;SHT30;52214;50.940;13.996;2023-05-10T06:20:50;12.68;79.32
65573;SHT30;52214;50.940;13.996;2023-05-10T06:23:16;12.72;79.36
65573;SHT30;52214;50.940;13.996;2023-05-10T06:25:42;12.72;79.42
65573;SHT30;52214;50.940;13.996;2023-05-10T06:28:08;12.73;79.43
65573;SHT30;52214;50.940;13.996;2023-05-10T06:30:36;12.72;79.48
65573;SHT30;52214;50.940;13.996;2023-05-10T06:33:02;12.70;79.50
65573;SHT30;52214;50.940;13.996;2023-05-10T06:35:28;12.68;79.54
65573;SHT30;52214;50.940;13.996;2023-05-10T06:37:54;12.72;79.57
65573;SHT30;52214;50.940;13.996;2023-05-10T06:40:20;12.72;79.58
65573;SHT30;52214;50.940;13.996;2023-05-10T06:42:46;12.70;79.65
65573;SHT30;52214;50.940;13.996;2023-05-10T06:45:13;12.70;79.68
65573;SHT30;52214;50.940;13.996;2023-05-10T06:47:40;12.70;79.70
65573;SHT30;52214;50.940;13.996;2023-05-10T06:50:07;12.70;79.71
65573;SHT30;52214;50.940;13.996;2023-05-10T06:52:33;12.72;79.74
65573;SHT30;52214;50.940;13.996;2023-05-10T06:54:58;12.73;79.75
65573;SHT30;52214;50.940;13.996;2023-05-10T06:57:24;12.73;79.76
65573;SHT30;52214;50.940;13.996;2023-05-10T06:59:50;12.72;79.75
65573;SHT30;52214;50.940;13.996;2023-05-10T07:02:15;12.73;79.79
65573;SHT30;52214;50.940;13.996;2023-05-10T07:04:41;12.73;79.82
65573;SHT30;52214;50.940;13.996;2023-05-10T07:07:07;12.72;79.85
65573;SHT30;52214;50.940;13.996;2023-05-10T07:09:33;12.72;79.85
65573;SHT30;52214;50.940;13.996;2023-05-10T07:11:59;12.72;79.85
65573;SHT30;52214;50.940;13.996;2023-05-10T07:14:27;12.74;79.88
65573;SHT30;52214;50.940;13.996;2023-05-10T07:16:53;12.76;79.87
65573;SHT30;52214;50.940;13.996;2023-05-10T07:19:18;12.73;79.91
65573;SHT30;52214;50.940;13.996;2023-05-10T07:21:45;12.73;79.91
65573;SHT30;52214;50.940;13.996;2023-05-10T07:24:10;12.73;79.92
65573;SHT30;52214;50.940;13.996;2023-05-10T07:26:36;12.72;79.95
65573;SHT30;52214;50.940;13.996;2023-05-10T07:29:02;12.70;79.98
65573;SHT30;52214;50.940;13.996;2023-05-10T07:31:28;12.73;80.00
65573;SHT30;52214;50.940;13.996;2023-05-10T07:33:53;12.72;80.02
65573;SHT30;52214;50.940;13.996;2023-05-10T07:36:19;12.73;80.00
65573;SHT30;52214;50.940;13.996;2023-05-10T07:38:44;12.73;80.05
65573;SHT30;52214;50.940;13.996;2023-05-10T07:41:11;12.73;80.02
65573;SHT30;52214;50.940;13.996;2023-05-10T07:43:38;12.73;80.08
65573;SHT30;52214;50.940;13.996;2023-05-10T07:46:03;12.74;80.07
65573;SHT30;52214;50.940;13.996;2023-05-10T07:48:29;12.73;80.08
65573;SHT30;52214;50.940;13.996;2023-05-10T07:50:54;12.74;80.08
65573;SHT30;52214;50.940;13.996;2023-05-10T07:53:20;12.74;80.09
65573;SHT30;52214;50.940;13.996;2023-05-10T07:58:47;12.74;80.08
65573;SHT30;52214;50.940;13.996;2023-05-10T08:01:13;12.77;80.08
65573;SHT30;52214;50.940;13.996;2023-05-10T08:03:39;12.77;80.12
65573;SHT30;52214;50.940;13.996;2023-05-10T08:06:05;12.79;80.11
65573;SHT30;52214;50.940;13.996;2023-05-10T08:08:31;12.80;80.08
65573;SHT30;52214;50.940;13.996;2023-05-10T08:10:56;12.80;80.07
65573;SHT30;52214;50.940;13.996;2023-05-10T08:13:22;12.81;80.06
65573;SHT30;52214;50.940;13.996;2023-05-10T08:15:48;12.83;80.04
65573;SHT30;52214;50.940;13.996;2023-05-10T08:18:14;12.84;80.03
65573;SHT30;52214;50.940;13.996;2023-05-10T08:20:39;12.85;79.94
65573;SHT30;52214;50.940;13.996;2023-05-10T08:23:05;12.88;79.93
65573;SHT30;52214;50.940;13.996;2023-05-10T08:25:31;12.91;79.88
65573;SHT30;52214;50.940;13.996;2023-05-10T08:27:57;12.90;79.80
65573;SHT30;52214;50.940;13.996;2023-05-10T08:30:22;12.93;79.74
65573;SHT30;52214;50.940;13.996;2023-05-10T08:32:48;12.94;79.69
65573;SHT30;52214;50.940;13.996;2023-05-10T08:35:13;12.98;79.71
65573;SHT30;52214;50.940;13.996;2023-05-10T08:37:39;13.02;79.68
65573;SHT30;52214;50.940;13.996;2023-05-10T08:40:05;13.00;79.68
65573;SHT30;52214;50.940;13.996;2023-05-10T08:42:34;13.02;79.73
65573;SHT30;52214;50.940;13.996;2023-05-10T08:45:03;13.04;79.71
65573;SHT30;52214;50.940;13.996;2023-05-10T08:47:29;13.08;79.72
65573;SHT30;52214;50.940;13.996;2023-05-10T08:49:57;13.08;79.74
65573;SHT30;52214;50.940;13.996;2023-05-10T08:52:26;13.11;79.76
65573;SHT30;52214;50.940;13.996;2023-05-10T08:54:53;13.11;79.75
65573;SHT30;52214;50.940;13.996;2023-05-10T08:57:19;13.15;79.75
65573;SHT30;52214;50.940;13.996;2023-05-10T08:59:45;13.15;79.78
65573;SHT30;52214;50.940;13.996;2023-05-10T09:02:12;13.18;79.81
65573;SHT30;52214;50.940;13.996;2023-05-10T09:04:39;13.18;79.86
65573;SHT30;52214;50.940;13.996;2023-05-10T09:07:05;13.21;79.90
65573;SHT30;52214;50.940;13.996;2023-05-10T09:09:31;13.23;79.95
65573;SHT30;52214;50.940;13.996;2023-05-10T09:11:57;13.26;80.03
65573;SHT30;52214;50.940;13.996;2023-05-10T09:14:24;13.28;80.07
65573;SHT30;52214;50.940;13.996;2023-05-10T09:16:50;13.29;80.10
65573;SHT30;52214;50.940;13.996;2023-05-10T09:19:16;13.32;80.15
65573;SHT30;52214;50.940;13.996;2023-05-10T09:21:41;13.34;80.23
65573;SHT30;52214;50.940;13.996;2023-05-10T09:24:08;13.35;80.27
65573;SHT30;52214;50.940;13.996;2023-05-10T09:26:35;13.39;80.33
65573;SHT30;52214;50.940;13.996;2023-05-10T09:29:03;13.39;80.41
65573;SHT30;52214;50.940;13.996;2023-05-10T09:31:48;13.45;80.41
65573;SHT30;52214;50.940;13.996;2023-05-10T09:34:18;13.43;80.46
65573;SHT30;52214;50.940;13.996;2023-05-10T09:36:54;13.47;80.47
65573;SHT30;52214;50.940;13.996;2023-05-10T09:39:20;13.49;80.50
65573;SHT30;52214;50.940;13.996;2023-05-10T09:41:46;13.53;80.53
65573;SHT30;52214;50.940;13.996;2023-05-10T09:44:16;13.57;80.56
65573;SHT30;52214;50.940;13.996;2023-05-10T09:46:49;13.60;80.56
65573;SHT30;52214;50.940;13.996;2023-05-10T09:49:15;13.63;80.61
65573;SHT30;52214;50.940;13.996;2023-05-10T09:51:41;13.67;80.62
65573;SHT30;52214;50.940;13.996;2023-05-10T09:54:15;13.69;80.71
65573;SHT30;52214;50.940;13.996;2023-05-10T09:56:42;13.71;80.71
65573;SHT30;52214;50.940;13.996;2023-05-10T09:59:10;13.74;80.71
65573;SHT30;52214;50.940;13.996;2023-05-10T10:01:37;13.78;80.81
65573;SHT30;52214;50.940;13.996;2023-05-10T10:04:04;13.83;80.80
65573;SHT30;52214;50.940;13.996;2023-05-10T10:06:35;13.83;80.81
65573;SHT30;52214;50.940;13.996;2023-05-10T10:09:02;13.85;80.85
65573;SHT30;52214;50.940;13.996;2023-05-10T10:11:28;13.88;80.85
65573;SHT30;52214;50.940;13.996;2023-05-10T10:13:54;13.93;80.86
65573;SHT30;52214;50.940;13.996;2023-05-10T10:16:20;13.95;80.91
65573;SHT30;52214;50.940;13.996;2023-05-10T10:18:47;13.98;80.93
65573;SHT30;52214;50.940;13.996;2023-05-10T10:21:14;14.02;80.97
65573;SHT30;52214;50.940;13.996;2023-05-10T10:23:40;14.04;80.98
65573;SHT30;52214;50.940;13.996;2023-05-10T10:26:06;14.05;81.00
65573;SHT30;52214;50.940;13.996;2023-05-10T10:28:45;14.12;81.09
65573;SHT30;52214;50.940;13.996;2023-05-10T10:31:23;14.14;81.15
65573;SHT30;52214;50.940;13.996;2023-05-10T10:34:06;14.17;81.17
65573;SHT30;52214;50.940;13.996;2023-05-10T10:36:40;14.21;81.19
65573;SHT30;52214;50.940;13.996;2023-05-10T10:39:10;14.24;81.20
65573;SHT30;52214;50.940;13.996;2023-05-10T10:41:39;14.25;81.25
65573;SHT30;52214;50.940;13.996;2023-05-10T10:44:26;14.28;81.29
65573;SHT30;52214;50.940;13.996;2023-05-10T10:47:02;14.33;81.31
65573;SHT30;52214;50.940;13.996;2023-05-10T10:49:31;14.36;81.32
65573;SHT30;52214;50.940;13.996;2023-05-10T11:00:29;14.50;81.40
65573;SHT30;52214;50.940;13.996;2023-05-10T11:10:39;14.65;81.48
65573;SHT30;52214;50.940;13.996;2023-05-10T11:13:07;14.69;81.48
65573;SHT30;52214;50.940;13.996;2023-05-10T11:15:35;14.72;81.57
65573;SHT30;52214;50.940;13.996;2023-05-10T11:18:17;14.77;81.58
65573;SHT30;52214;50.940;13.996;2023-05-10T11:20:43;14.81;81.58
65573;SHT30;52214;50.940;13.996;2023-05-10T11:23:11;14.79;81.58
65573;SHT30;52214;50.940;13.996;2023-05-10T11:25:42;14.81;81.66
65573;SHT30;52214;50.940;13.996;2023-05-10T11:28:08;14.84;81.71
65573;SHT30;52214;50.940;13.996;2023-05-10T11:30:35;14.88;81.78
65573;SHT30;52214;50.940;13.996;2023-05-10T11:33:01;14.88;81.77
65573;SHT30;52214;50.940;13.996;2023-05-10T11:35:27;14.93;81.81
65573;SHT30;52214;50.940;13.996;2023-05-10T11:37:53;14.97;81.86
65573;SHT30;52214;50.940;13.996;2023-05-10T11:40:21;14.98;81.93
65573;SHT30;52214;50.940;13.996;2023-05-10T11:42:46;15.00;81.96
65573;SHT30;52214;50.940;13.996;2023-05-10T11:45:12;15.02;81.99
65573;SHT30;52214;50.940;13.996;2023-05-10T11:47:38;15.04;82.07
65573;SHT30;52214;50.940;13.996;2023-05-10T11:50:05;15.08;82.08
65573;SHT30;52214;50.940;13.996;2023-05-10T11:52:35;15.10;82.11
65573;SHT30;52214;50.940;13.996;2023-05-10T11:55:02;15.11;82.11
65573;SHT30;52214;50.940;13.996;2023-05-10T11:57:28;15.12;82.16
65573;SHT30;52214;50.940;13.996;2023-05-10T11:59:54;15.17;82.20
65573;SHT30;52214;50.940;13.996;2023-05-10T12:02:21;15.19;82.26
65573;SHT30;52214;50.940;13.996;2023-05-10T12:04:47;15.22;82.23
65573;SHT30;52214;50.940;13.996;2023-05-10T12:07:13;15.27;82.27
65573;SHT30;52214;50.940;13.996;2023-05-10T12:09:43;15.27;82.27
65573;SHT30;52214;50.940;13.996;2023-05-10T12:12:15;15.29;82.29
65573;SHT30;52214;50.940;13.996;2023-05-10T12:14:41;15.34;82.34
65573;SHT30;52214;50.940;13.996;2023-05-10T12:17:11;15.35;82.35
65573;SHT30;52214;50.940;13.996;2023-05-10T12:19:38;15.39;82.36
65573;SHT30;52214;50.940;13.996;2023-05-10T12:22:05;15.45;82.33
65573;SHT30;52214;50.940;13.996;2023-05-10T12:24:34;15.48;82.33
65573;SHT30;52214;50.940;13.996;2023-05-10T12:27:05;15.52;82.29
65573;SHT30;52214;50.940;13.996;2023-05-10T12:29:33;15.53;82.32
65573;SHT30;52214;50.940;13.996;2023-05-10T12:31:59;15.57;82.33
65573;SHT30;52214;50.940;13.996;2023-05-10T12:34:30;15.65;82.34
65573;SHT30;52214;50.940;13.996;2023-05-10T12:36:56;15.62;82.36
65573;SHT30;52214;50.940;13.996;2023-05-10T12:39:23;15.65;82.36
65573;SHT30;52214;50.940;13.996;2023-05-10T12:41:49;15.70;82.42
65573;SHT30;52214;50.940;13.996;2023-05-10T12:44:18;15.73;82.38
65573;SHT30;52214;50.940;13.996;2023-05-10T12:46:43;15.76;82.44
65573;SHT30;52214;50.940;13.996;2023-05-10T12:49:09;15.79;82.44
65573;SHT30;52214;50.940;13.996;2023-05-10T12:51:35;15.82;82.42
65573;SHT30;52214;50.940;13.996;2023-05-10T12:54:02;15.83;82.48
65573;SHT30;52214;50.940;13.996;2023-05-10T12:56:28;15.84;82.45
65573;SHT30;52214;50.940;13.996;2023-05-10T12:58:54;15.90;82.44
65573;SHT30;52214;50.940;13.996;2023-05-10T13:01:19;15.90;82.47
65573;SHT30;52214;50.940;13.996;2023-05-10T13:03:45;15.91;82.48
65573;SHT30;52214;50.940;13.996;2023-05-10T13:06:11;15.97;82.48
65573;SHT30;52214;50.940;13.996;2023-05-10T13:08:38;16.00;82.50
65573;SHT30;52214;50.940;13.996;2023-05-10T13:11:05;16.04;82.51
65573;SHT30;52214;50.940;13.996;2023-05-10T13:13:30;16.04;82.59
65573;SHT30;52214;50.940;13.996;2023-05-10T13:15:56;16.07;82.56
65573;SHT30;52214;50.940;13.996;2023-05-10T13:18:22;16.11;82.57
65573;SHT30;52214;50.940;13.996;2023-05-10T13:20:47;16.14;82.56
65573;SHT30;52214;50.940;13.996;2023-05-10T13:23:14;16.15;82.61
65573;SHT30;52214;50.940;13.996;2023-05-10T13:25:40;16.15;82.66
65573;SHT30;52214;50.940;13.996;2023-05-10T13:28:05;16.17;82.70
65573;SHT30;52214;50.940;13.996;2023-05-10T13:30:31;16.21;82.67
65573;SHT30;52214;50.940;13.996;2023-05-10T13:32:57;16.24;82.68
65573;SHT30;52214;50.940;13.996;2023-05-10T13:35:22;16.26;82.66
65573;SHT30;52214;50.940;13.996;2023-05-10T13:37:48;16.30;82.68
65573;SHT30;52214;50.940;13.996;2023-05-10T13:40:14;16.32;82.66
65573;SHT30;52214;50.940;13.996;2023-05-10T13:42:41;16.33;82.67
65573;SHT30;52214;50.940;13.996;2023-05-10T13:45:07;16.36;82.72
65573;SHT30;52214;50.940;13.996;2023-05-10T13:47:33;16.41;82.74
65573;SHT30;52214;50.940;13.996;2023-05-10T13:49:58;16.44;82.72
65573;SHT30;52214;50.940;13.996;2023-05-10T13:52:24;16.45;82.73
65573;SHT30;52214;50.940;13.996;2023-05-10T13:54:50;16.48;82.73
65573;SHT30;52214;50.940;13.996;2023-05-10T13:57:18;16.48;82.78
65573;SHT30;52214;50.940;13.996;2023-05-10T13:59:43;16.51;82.84
65573;SHT30;52214;50.940;13.996;2023-05-10T14:02:09;16.52;82.87
65573;SHT30;52214;50.940;13.996;2023-05-10T14:04:37;16.55;82.89
65573;SHT30;52214;50.940;13.996;2023-05-10T14:07:03;16.56;82.87
65573;SHT30;52214;50.940;13.996;2023-05-10T14:09:28;16.57;82.90
65573;SHT30;52214;50.940;13.996;2023-05-10T14:11:54;16.60;82.96
65573;SHT30;52214;50.940;13.996;2023-05-10T14:14:21;16.63;82.98
65573;SHT30;52214;50.940;13.996;2023-05-10T14:16:46;16.62;82.97
65573;SHT30;52214;50.940;13.996;2023-05-10T14:19:12;16.65;83.05
65573;SHT30;52214;50.940;13.996;2023-05-10T14:21:38;16.67;83.07
65573;SHT30;52214;50.940;13.996;2023-05-10T14:24:03;16.69;83.07
65573;SHT30;52214;50.940;13.996;2023-05-10T14:26:29;16.69;83.07
65573;SHT30;52214;50.940;13.996;2023-05-10T14:28:55;16.74;83.09
65573;SHT30;52214;50.940;13.996;2023-05-10T14:31:21;16.74;83.12
65573;SHT30;52214;50.940;13.996;2023-05-10T14:33:48;16.76;83.17
65573;SHT30;52214;50.940;13.996;2023-05-10T14:36:14;16.77;83.22
65573;SHT30;52214;50.940;13.996;2023-05-10T14:38:40;16.79;83.20
65573;SHT30;52214;50.940;13.996;2023-05-10T14:41:06;16.81;83.21
65573;SHT30;52214;50.940;13.996;2023-05-10T14:43:32;16.84;83.19
65573;SHT30;52214;50.940;13.996;2023-05-10T14:45:57;16.85;83.14
65573;SHT30;52214;50.940;13.996;2023-05-10T14:48:23;16.88;83.20
65573;SHT30;52214;50.940;13.996;2023-05-10T14:50:48;16.88;83.23
65573;SHT30;52214;50.940;13.996;2023-05-10T14:53:15;16.93;83.29
65573;SHT30;52214;50.940;13.996;2023-05-10T14:55:42;16.91;83.30
65573;SHT30;52214;50.940;13.996;2023-05-10T14:58:08;16.94;83.29
65573;SHT30;52214;50.940;13.996;2023-05-10T15:00:33;16.99;83.32
65573;SHT30;52214;50.940;13.996;2023-05-10T15:03:03;16.95;83.34
65573;SHT30;52214;50.940;13.996;2023-05-10T15:05:28;16.99;83.34
65573;SHT30;52214;50.940;13.996;2023-05-10T15:07:54;17.00;83.36
65573;SHT30;52214;50.940;13.996;2023-05-10T15:10:19;17.01;83.33
65573;SHT30;52214;50.940;13.996;2023-05-10T15:12:45;17.01;83.37
65573;SHT30;52214;50.940;13.996;2023-05-10T17:34:41;17.84;69.56
65573;SHT30;52214;50.940;13.996;2023-05-10T17:37:08;17.86;69.67
65573;SHT30;52214;50.940;13.996;2023-05-10T17:39:33;17.86;69.72
65573;SHT30;52214;50.940;13.996;2023-05-10T17:41:59;17.82;70.29
65573;SHT30;52214;50.940;13.996;2023-05-10T17:44:25;17.82;70.61
65573;SHT30;52214;50.940;13.996;2023-05-10T17:46:50;17.82;70.74
65573;SHT30;52214;50.940;13.996;2023-05-10T17:49:16;17.79;70.32
65573;SHT30;52214;50.940;13.996;2023-05-10T17:51:42;17.74;70.40
65573;SHT30;52214;50.940;13.996;2023-05-10T17:54:08;17.73;70.45
65573;SHT30;52214;50.940;13.996;2023-05-10T17:56:34;17.72;70.50
65573;SHT30;52214;50.940;13.996;2023-05-10T17:58:59;17.72;70.84
65573;SHT30;52214;50.940;13.996;2023-05-10T18:01:25;17.66;70.84
65573;SHT30;52214;50.940;13.996;2023-05-10T18:03:50;17.69;70.99